createdAt,value
2017-11-11T00:00:31.990Z,88.62
2017-11-11T00:01:31.974Z,89.06
2017-11-11T00:02:31.929Z,89.29
2017-11-11T00:03:31.894Z,90.81
2017-11-11T00:04:31.866Z,90.90
2017-11-11T00:05:31.840Z,91.28
2017-11-11T00:06:31.817Z,92.71
2017-11-11T00:07:31.779Z,91.94
2017-11-11T00:08:31.750Z,92.61
2017-11-11T00:09:31.717Z,92.71
2017-11-11T00:10:31.690Z,90.90
2017-11-11T00:11:31.656Z,90.52
2017-11-11T00:12:31.629Z,90.62
2017-11-11T00:13:31.597Z,91.75
2017-11-11T00:14:31.563Z,91.09
2017-11-11T00:15:31.788Z,91.19
2017-11-11T00:16:31.511Z,91.09
2017-11-11T00:17:31.477Z,91.28
2017-11-11T00:18:31.447Z,90.62
2017-11-11T00:19:31.422Z,90.62
2017-11-11T00:20:31.387Z,90.43
2017-11-11T00:21:31.658Z,91.00
2017-11-11T00:22:31.328Z,89.95
2017-11-11T00:23:31.297Z,89.95
2017-11-11T00:24:31.270Z,90.62
2017-11-11T00:25:31.239Z,89.95
2017-11-11T00:26:31.209Z,90.24
2017-11-11T00:27:31.428Z,89.48
2017-11-11T00:28:31.147Z,91.00
2017-11-11T00:29:31.117Z,91.00
2017-11-11T00:30:31.087Z,91.09
2017-11-11T00:31:31.060Z,91.28
2017-11-11T00:32:31.032Z,90.14
2017-11-11T00:33:30.998Z,89.48
2017-11-11T00:34:30.968Z,89.00
2017-11-11T00:35:30.940Z,87.11
2017-11-11T00:36:30.912Z,87.96
2017-11-11T00:37:30.880Z,86.44
2017-11-11T00:38:30.852Z,86.44
2017-11-11T00:39:30.820Z,87.20
2017-11-11T00:40:30.787Z,86.25
2017-11-11T00:41:30.761Z,87.20
2017-11-11T00:42:30.729Z,86.35
2017-11-11T00:43:30.698Z,85.97
2017-11-11T00:44:30.668Z,85.02
2017-11-11T00:45:30.642Z,85.87
2017-11-11T00:46:30.611Z,85.49
2017-11-11T00:47:30.582Z,86.07
2017-11-11T00:48:30.547Z,86.35
2017-11-11T00:49:30.520Z,85.83
2017-11-11T00:50:30.490Z,84.88
2017-11-11T00:51:30.708Z,85.11
2017-11-11T00:52:30.428Z,84.36
2017-11-11T00:53:30.395Z,84.98
2017-11-11T00:54:30.368Z,84.64
2017-11-11T00:55:30.339Z,83.97
2017-11-11T00:56:30.608Z,85.11
2017-11-11T00:57:30.280Z,84.36
2017-11-11T00:58:30.252Z,85.21
2017-11-11T00:59:30.220Z,85.02
2017-11-11T01:00:30.195Z,84.92
2017-11-11T01:01:30.161Z,84.36
2017-11-11T01:02:30.133Z,83.84
2017-11-11T01:03:30.100Z,82.08
2017-11-11T01:04:30.066Z,84.41
2017-11-11T01:05:30.035Z,83.74
2017-11-11T01:06:30.009Z,84.31
2017-11-11T01:07:29.982Z,84.31
2017-11-11T01:08:29.952Z,83.84
2017-11-11T01:09:29.918Z,84.31
2017-11-11T01:10:29.892Z,83.12
2017-11-11T01:11:29.860Z,83.94
2017-11-11T01:12:29.832Z,83.17
2017-11-11T01:13:29.798Z,83.84
2017-11-11T01:14:29.765Z,84.31
2017-11-11T01:15:29.740Z,83.94
2017-11-11T01:16:29.708Z,82.60
2017-11-11T01:17:29.683Z,83.74
2017-11-11T01:18:29.649Z,83.36
2017-11-11T01:19:29.615Z,83.55
2017-11-11T01:20:29.589Z,84.31
2017-11-11T01:21:29.561Z,83.65
2017-11-11T01:22:29.537Z,84.12
2017-11-11T01:23:29.494Z,84.50
2017-11-11T01:24:29.464Z,84.59
2017-11-11T01:25:29.446Z,85.07
2017-11-11T01:26:29.660Z,85.45
2017-11-11T01:27:29.379Z,85.36
2017-11-11T01:28:29.351Z,87.25
2017-11-11T01:29:29.316Z,87.82
2017-11-11T01:30:29.296Z,87.92
2017-11-11T01:31:29.257Z,86.40
2017-11-11T01:32:29.532Z,86.35
2017-11-11T01:33:29.196Z,86.91
2017-11-11T01:34:29.164Z,86.72
2017-11-11T01:35:29.136Z,88.34
2017-11-11T01:36:29.108Z,88.24
2017-11-11T01:37:29.073Z,88.24
2017-11-11T01:38:29.042Z,87.96
2017-11-11T01:39:29.017Z,87.58
2017-11-11T01:40:28.990Z,87.49
2017-11-11T01:41:28.953Z,86.25
2017-11-11T01:42:28.925Z,85.30
2017-11-11T01:43:28.896Z,84.78
2017-11-11T01:44:28.868Z,85.74
2017-11-11T01:45:28.842Z,85.26
2017-11-11T01:46:28.810Z,86.21
2017-11-11T01:47:28.777Z,85.93
2017-11-11T01:48:28.746Z,87.25
2017-11-11T01:49:28.961Z,85.87
2017-11-11T01:50:28.688Z,86.21
2017-11-11T01:51:28.656Z,87.11
2017-11-11T01:52:28.629Z,87.96
2017-11-11T01:53:28.598Z,86.91
2017-11-11T01:54:28.586Z,85.97
2017-11-11T01:55:28.536Z,85.40
2017-11-11T01:56:28.509Z,85.87
2017-11-11T01:57:28.477Z,84.64
2017-11-11T01:58:28.444Z,84.83
2017-11-11T01:59:28.411Z,86.16
2017-11-11T02:00:28.381Z,86.07
2017-11-11T02:01:28.658Z,88.43
2017-11-11T02:02:28.330Z,88.43
2017-11-11T02:03:28.299Z,87.39
2017-11-11T02:04:28.269Z,88.15
2017-11-11T02:05:28.240Z,88.43
2017-11-11T02:06:28.206Z,88.34
2017-11-11T02:07:28.174Z,88.72
2017-11-11T02:08:28.142Z,87.30
2017-11-11T02:09:28.118Z,86.72
2017-11-11T02:10:28.082Z,85.02
2017-11-11T02:11:28.056Z,85.87
2017-11-11T02:12:28.026Z,86.91
2017-11-11T02:13:28.245Z,87.77
2017-11-11T02:14:27.962Z,86.07
2017-11-11T02:15:27.933Z,87.30
2017-11-11T02:16:27.904Z,86.44
2017-11-11T02:17:27.880Z,86.72
2017-11-11T02:18:27.845Z,87.87
2017-11-11T02:19:28.115Z,89.48
2017-11-11T02:20:27.790Z,89.58
2017-11-11T02:21:27.754Z,89.10
2017-11-11T02:22:27.724Z,89.00
2017-11-11T02:23:27.698Z,89.00
2017-11-11T02:24:27.659Z,89.29
2017-11-11T02:25:27.633Z,88.15
2017-11-11T02:26:27.607Z,88.34
2017-11-11T02:27:27.575Z,89.00
2017-11-11T02:28:27.539Z,87.87
2017-11-11T02:29:27.516Z,87.01
2017-11-11T02:30:27.487Z,86.97
2017-11-11T02:31:27.467Z,88.15
2017-11-11T02:32:27.426Z,88.96
2017-11-11T02:33:27.395Z,87.77
2017-11-11T02:34:27.362Z,87.63
2017-11-11T02:35:27.342Z,87.54
2017-11-11T02:36:27.316Z,87.63
2017-11-11T02:37:27.523Z,86.21
2017-11-11T02:38:27.244Z,84.88
2017-11-11T02:39:27.212Z,85.55
2017-11-11T02:40:27.186Z,85.26
2017-11-11T02:41:27.168Z,85.83
2017-11-11T02:42:27.119Z,86.11
2017-11-11T02:43:27.095Z,85.26
2017-11-11T02:44:27.062Z,85.17
2017-11-11T02:45:27.037Z,85.93
2017-11-11T02:46:27.007Z,87.25
2017-11-11T02:47:26.975Z,85.93
2017-11-11T02:48:26.939Z,87.25
2017-11-11T02:49:26.913Z,86.21
2017-11-11T02:50:26.895Z,85.93
2017-11-11T02:51:26.857Z,85.93
2017-11-11T02:52:26.822Z,86.40
2017-11-11T02:53:26.793Z,86.30
2017-11-11T02:54:27.067Z,86.68
2017-11-11T02:55:26.734Z,88.10
2017-11-11T02:56:26.713Z,86.97
2017-11-11T02:57:26.672Z,87.63
2017-11-11T02:58:26.636Z,87.35
2017-11-11T02:59:26.615Z,87.54
2017-11-11T03:00:26.826Z,89.25
2017-11-11T03:01:26.554Z,89.34
2017-11-11T03:02:26.515Z,88.96
2017-11-11T03:03:26.486Z,89.15
2017-11-11T03:04:26.483Z,89.25
2017-11-11T03:05:26.428Z,89.53
2017-11-11T03:06:26.397Z,88.87
2017-11-11T03:07:26.367Z,88.58
2017-11-11T03:08:26.340Z,89.43
2017-11-11T03:09:26.312Z,89.62
2017-11-11T03:10:26.287Z,88.96
2017-11-11T03:11:26.248Z,89.25
2017-11-11T03:12:26.233Z,88.58
2017-11-11T03:13:26.185Z,89.43
2017-11-11T03:14:26.159Z,87.73
2017-11-11T03:15:26.129Z,88.96
2017-11-11T03:16:26.094Z,87.92
2017-11-11T03:17:26.059Z,88.39
2017-11-11T03:18:26.031Z,87.82
2017-11-11T03:19:26.003Z,88.96
2017-11-11T03:20:25.975Z,89.15
2017-11-11T03:21:25.939Z,88.87
2017-11-11T03:22:25.909Z,88.20
2017-11-11T03:23:25.884Z,87.06
2017-11-11T03:24:26.106Z,86.49
2017-11-11T03:25:25.823Z,87.45
2017-11-11T03:26:25.799Z,86.49
2017-11-11T03:27:25.763Z,86.30
2017-11-11T03:28:25.732Z,86.68
2017-11-11T03:29:25.701Z,86.68
2017-11-11T03:30:25.669Z,87.25
2017-11-11T03:31:25.642Z,87.35
2017-11-11T03:32:25.617Z,86.30
2017-11-11T03:33:25.581Z,86.49
2017-11-11T03:34:25.549Z,88.10
2017-11-11T03:35:25.769Z,87.73
2017-11-11T03:36:25.484Z,87.73
2017-11-11T03:37:25.465Z,87.54
2017-11-11T03:38:25.428Z,88.87
2017-11-11T03:39:25.398Z,87.92
2017-11-11T03:40:25.365Z,89.06
2017-11-11T03:41:25.690Z,89.43
2017-11-11T03:42:25.306Z,89.06
2017-11-11T03:43:25.285Z,88.20
2017-11-11T03:44:25.246Z,87.16
2017-11-11T03:45:25.216Z,85.83
2017-11-11T03:46:25.181Z,86.21
2017-11-11T03:47:25.152Z,85.74
2017-11-11T03:48:25.122Z,85.36
2017-11-11T03:49:25.108Z,83.94
2017-11-11T03:50:25.066Z,84.31
2017-11-11T03:51:25.035Z,85.17
2017-11-11T03:52:25.000Z,86.30
2017-11-11T03:53:24.973Z,85.07
2017-11-11T03:54:24.940Z,84.88
2017-11-11T03:55:24.908Z,85.55
2017-11-11T03:56:24.882Z,86.59
2017-11-11T03:57:24.849Z,86.02
2017-11-11T03:58:24.821Z,85.26
2017-11-11T03:59:24.797Z,86.59
2017-11-11T04:00:24.758Z,85.93
2017-11-11T04:01:24.757Z,85.64
2017-11-11T04:02:24.698Z,87.06
2017-11-11T04:03:24.664Z,86.87
2017-11-11T04:04:24.651Z,85.74
2017-11-11T04:05:24.611Z,87.45
2017-11-11T04:06:24.577Z,87.35
2017-11-11T04:07:24.545Z,89.43
2017-11-11T04:08:24.514Z,88.01
2017-11-11T04:09:24.482Z,88.10
2017-11-11T04:10:24.456Z,87.06
2017-11-11T04:11:24.427Z,87.82
2017-11-11T04:12:24.408Z,89.34
2017-11-11T04:13:24.365Z,86.87
2017-11-11T04:14:24.337Z,89.91
2017-11-11T04:15:24.313Z,90.10
2017-11-11T04:16:24.276Z,89.15
2017-11-11T04:17:24.244Z,87.92
2017-11-11T04:18:24.214Z,88.87
2017-11-11T04:19:24.183Z,90.00
2017-11-11T04:20:24.157Z,89.53
2017-11-11T04:21:24.120Z,91.61
2017-11-11T04:22:24.094Z,90.48
2017-11-11T04:23:24.364Z,88.10
2017-11-11T04:24:24.030Z,89.43
2017-11-11T04:25:23.998Z,90.00
2017-11-11T04:26:23.972Z,88.87
2017-11-11T04:27:23.937Z,87.73
2017-11-11T04:28:23.907Z,88.20
2017-11-11T04:29:24.129Z,88.87
2017-11-11T04:30:23.853Z,89.06
2017-11-11T04:31:23.823Z,89.53
2017-11-11T04:32:23.813Z,87.35
2017-11-11T04:33:23.760Z,88.96
2017-11-11T04:34:23.725Z,88.39
2017-11-11T04:35:23.697Z,89.25
2017-11-11T04:36:23.666Z,89.72
2017-11-11T04:37:23.651Z,89.25
2017-11-11T04:38:23.609Z,89.72
2017-11-11T04:39:23.575Z,89.25
2017-11-11T04:40:23.802Z,88.96
2017-11-11T04:41:23.532Z,89.62
2017-11-11T04:42:23.490Z,90.48
2017-11-11T04:43:23.466Z,89.43
2017-11-11T04:44:23.423Z,89.15
2017-11-11T04:45:23.394Z,89.62
2017-11-11T04:46:23.367Z,89.25
2017-11-11T04:47:23.334Z,87.63
2017-11-11T04:48:23.305Z,86.11
2017-11-11T04:49:23.277Z,84.78
2017-11-11T04:50:23.244Z,86.78
2017-11-11T04:51:23.226Z,85.07
2017-11-11T04:52:23.188Z,84.31
2017-11-11T04:53:23.153Z,84.78
2017-11-11T04:54:23.125Z,83.46
2017-11-11T04:55:23.097Z,82.98
2017-11-11T04:56:23.062Z,83.84
2017-11-11T04:57:23.035Z,83.55
2017-11-11T04:58:22.999Z,83.55
2017-11-11T04:59:22.973Z,83.84
2017-11-11T05:00:22.941Z,83.65
2017-11-11T05:01:22.911Z,82.42
2017-11-11T05:02:22.878Z,82.79
2017-11-11T05:03:22.852Z,82.98
2017-11-11T05:04:23.068Z,82.23
2017-11-11T05:05:22.790Z,82.32
2017-11-11T05:06:22.763Z,81.27
2017-11-11T05:07:22.732Z,82.32
2017-11-11T05:08:22.697Z,82.32
2017-11-11T05:09:22.669Z,81.18
2017-11-11T05:10:22.641Z,80.24
2017-11-11T05:11:22.608Z,79.95
2017-11-11T05:12:22.577Z,79.38
2017-11-11T05:13:22.543Z,80.99
2017-11-11T05:14:22.512Z,80.43
2017-11-11T05:15:23.036Z,80.71
2017-11-11T05:16:22.453Z,80.62
2017-11-11T05:17:22.428Z,80.04
2017-11-11T05:18:22.399Z,81.18
2017-11-11T05:19:22.361Z,80.24
2017-11-11T05:20:22.331Z,79.57
2017-11-11T05:21:22.312Z,80.04
2017-11-11T05:22:22.277Z,80.24
2017-11-11T05:23:22.238Z,80.62
2017-11-11T05:24:22.213Z,81.27
2017-11-11T05:25:22.180Z,81.27
2017-11-11T05:26:22.155Z,80.52
2017-11-11T05:27:22.422Z,80.33
2017-11-11T05:28:22.091Z,80.62
2017-11-11T05:29:22.058Z,80.62
2017-11-11T05:30:22.025Z,82.60
2017-11-11T05:31:22.001Z,80.80
2017-11-11T05:32:21.968Z,80.71
2017-11-11T05:33:22.188Z,82.23
2017-11-11T05:34:21.902Z,82.13
2017-11-11T05:35:21.881Z,82.23
2017-11-11T05:36:21.849Z,82.42
2017-11-11T05:37:21.820Z,83.74
2017-11-11T05:38:21.785Z,83.65
2017-11-11T05:39:22.011Z,84.50
2017-11-11T05:40:21.738Z,85.93
2017-11-11T05:41:21.693Z,85.93
2017-11-11T05:42:21.666Z,85.93
2017-11-11T05:43:21.633Z,85.07
2017-11-11T05:44:21.602Z,86.02
2017-11-11T05:45:21.567Z,85.74
2017-11-11T05:46:21.537Z,86.78
2017-11-11T05:47:21.515Z,86.21
2017-11-11T05:48:21.484Z,86.59
2017-11-11T05:49:21.451Z,86.21
2017-11-11T05:50:21.416Z,85.64
2017-11-11T05:51:21.397Z,88.39
2017-11-11T05:52:21.357Z,88.10
2017-11-11T05:53:21.324Z,87.73
2017-11-11T05:54:21.300Z,87.92
2017-11-11T05:55:21.267Z,86.11
2017-11-11T05:56:21.232Z,87.63
2017-11-11T05:57:21.212Z,88.29
2017-11-11T05:58:21.184Z,86.49
2017-11-11T05:59:21.147Z,86.87
2017-11-11T06:00:21.117Z,87.16
2017-11-11T06:01:21.085Z,88.29
2017-11-11T06:02:21.054Z,85.74
2017-11-11T06:03:21.327Z,86.40
2017-11-11T06:04:20.993Z,86.59
2017-11-11T06:05:20.964Z,86.02
2017-11-11T06:06:20.947Z,86.21
2017-11-11T06:07:20.908Z,87.16
2017-11-11T06:08:20.874Z,87.92
2017-11-11T06:09:21.094Z,87.35
2017-11-11T06:10:20.817Z,86.30
2017-11-11T06:11:20.783Z,85.07
2017-11-11T06:12:20.754Z,84.88
2017-11-11T06:13:20.725Z,86.21
2017-11-11T06:14:20.696Z,84.88
2017-11-11T06:15:20.666Z,84.98
2017-11-11T06:16:20.632Z,83.84
2017-11-11T06:17:20.604Z,82.70
2017-11-11T06:18:20.575Z,83.74
2017-11-11T06:19:20.540Z,82.60
2017-11-11T06:20:20.515Z,84.41
2017-11-11T06:21:20.490Z,85.83
2017-11-11T06:22:20.451Z,85.45
2017-11-11T06:23:20.423Z,85.74
2017-11-11T06:24:20.392Z,85.83
2017-11-11T06:25:20.363Z,85.83
2017-11-11T06:26:20.326Z,86.87
2017-11-11T06:27:20.299Z,87.54
2017-11-11T06:28:20.272Z,87.06
2017-11-11T06:29:20.243Z,87.35
2017-11-11T06:30:20.209Z,88.20
2017-11-11T06:31:20.176Z,89.34
2017-11-11T06:32:20.406Z,88.20
2017-11-11T06:33:20.125Z,89.43
2017-11-11T06:34:20.090Z,89.53
2017-11-11T06:35:20.052Z,88.20
2017-11-11T06:36:20.028Z,87.92
2017-11-11T06:37:20.123Z,88.39
2017-11-11T06:38:19.961Z,87.63
2017-11-11T06:39:19.944Z,88.20
2017-11-11T06:40:19.906Z,88.77
2017-11-11T06:41:19.879Z,87.92
2017-11-11T06:42:19.855Z,87.63
2017-11-11T06:43:19.820Z,87.25
2017-11-11T06:44:19.784Z,87.16
2017-11-11T06:45:19.760Z,86.30
2017-11-11T06:46:19.718Z,86.11
2017-11-11T06:47:19.692Z,86.21
2017-11-11T06:48:19.664Z,86.49
2017-11-11T06:49:19.635Z,86.21
2017-11-11T06:50:19.901Z,86.40
2017-11-11T06:51:19.566Z,86.40
2017-11-11T06:52:19.554Z,85.55
2017-11-11T06:53:19.510Z,85.17
2017-11-11T06:54:19.475Z,84.88
2017-11-11T06:55:19.452Z,84.31
2017-11-11T06:56:19.423Z,84.12
2017-11-11T06:57:19.396Z,84.69
2017-11-11T06:58:19.357Z,85.93
2017-11-11T06:59:19.327Z,85.55
2017-11-11T07:00:19.297Z,85.17
2017-11-11T07:01:19.266Z,85.74
2017-11-11T07:02:19.238Z,85.26
2017-11-11T07:03:19.205Z,85.83
2017-11-11T07:04:19.175Z,85.74
2017-11-11T07:05:19.149Z,85.26
2017-11-11T07:06:19.120Z,84.98
2017-11-11T07:07:19.095Z,84.98
2017-11-11T07:08:19.058Z,84.31
2017-11-11T07:09:19.019Z,85.74
2017-11-11T07:10:18.993Z,85.64
2017-11-11T07:11:18.965Z,85.17
2017-11-11T07:12:18.937Z,85.74
2017-11-11T07:13:18.900Z,85.83
2017-11-11T07:14:18.873Z,86.87
2017-11-11T07:15:18.846Z,86.02
2017-11-11T07:16:18.809Z,85.36
2017-11-11T07:17:18.786Z,85.74
2017-11-11T07:18:18.755Z,85.07
2017-11-11T07:19:18.977Z,85.93
2017-11-11T07:20:18.693Z,86.40
2017-11-11T07:21:18.671Z,86.21
2017-11-11T07:22:18.631Z,86.11
2017-11-11T07:23:18.601Z,86.49
2017-11-11T07:24:18.571Z,85.55
2017-11-11T07:25:18.857Z,86.30
2017-11-11T07:26:18.532Z,87.16
2017-11-11T07:27:18.486Z,86.78
2017-11-11T07:28:18.456Z,85.45
2017-11-11T07:29:18.421Z,86.11
2017-11-11T07:30:18.392Z,86.21
2017-11-11T07:31:18.362Z,86.02
2017-11-11T07:32:18.332Z,86.68
2017-11-11T07:33:18.300Z,87.82
2017-11-11T07:34:18.275Z,88.68
2017-11-11T07:35:18.244Z,87.11
2017-11-11T07:36:18.214Z,89.53
2017-11-11T07:37:18.183Z,90.29
2017-11-11T07:38:18.158Z,89.86
2017-11-11T07:39:18.134Z,89.39
2017-11-11T07:40:18.098Z,89.62
2017-11-11T07:41:18.069Z,89.48
2017-11-11T07:42:18.029Z,89.62
2017-11-11T07:43:18.017Z,89.91
2017-11-11T07:44:17.975Z,89.34
2017-11-11T07:45:17.947Z,89.39
2017-11-11T07:46:17.912Z,89.76
2017-11-11T07:47:17.883Z,89.10
2017-11-11T07:48:18.104Z,89.39
2017-11-11T07:49:17.824Z,90.43
2017-11-11T07:50:17.797Z,91.19
2017-11-11T07:51:17.765Z,91.38
2017-11-11T07:52:17.730Z,91.47
2017-11-11T07:53:17.707Z,92.33
2017-11-11T07:54:17.976Z,91.85
2017-11-11T07:55:17.654Z,90.14
2017-11-11T07:56:17.612Z,92.71
2017-11-11T07:57:17.589Z,91.75
2017-11-11T07:58:17.556Z,91.00
2017-11-11T07:59:17.529Z,90.52
2017-11-11T08:00:17.951Z,89.67
2017-11-11T08:01:17.466Z,90.43
2017-11-11T08:02:17.435Z,89.58
2017-11-11T08:03:17.409Z,87.30
2017-11-11T08:04:17.377Z,88.91
2017-11-11T08:05:17.349Z,89.20
2017-11-11T08:06:17.320Z,87.39
2017-11-11T08:07:17.290Z,88.96
2017-11-11T08:08:17.261Z,87.63
2017-11-11T08:09:17.235Z,86.72
2017-11-11T08:10:17.198Z,88.10
2017-11-11T08:11:17.172Z,87.35
2017-11-11T08:12:17.139Z,88.20
2017-11-11T08:13:17.108Z,85.97
2017-11-11T08:14:17.081Z,85.97
2017-11-11T08:15:17.064Z,85.11
2017-11-11T08:16:17.026Z,85.40
2017-11-11T08:17:16.996Z,85.02
2017-11-11T08:18:16.962Z,86.16
2017-11-11T08:19:16.935Z,88.91
2017-11-11T08:20:16.909Z,86.54
2017-11-11T08:21:16.876Z,87.87
2017-11-11T08:22:16.857Z,87.77
2017-11-11T08:23:16.818Z,89.10
2017-11-11T08:24:16.792Z,89.00
2017-11-11T08:25:16.763Z,89.86
2017-11-11T08:26:16.734Z,90.33
2017-11-11T08:27:16.699Z,89.39
2017-11-11T08:28:16.672Z,88.62
2017-11-11T08:29:16.744Z,91.56
2017-11-11T08:30:16.617Z,91.47
2017-11-11T08:31:16.587Z,92.23
2017-11-11T08:32:16.561Z,91.66
2017-11-11T08:33:16.528Z,92.33
2017-11-11T08:34:16.501Z,90.33
2017-11-11T08:35:16.476Z,91.56
2017-11-11T08:36:16.447Z,91.66
2017-11-11T08:37:16.414Z,92.23
2017-11-11T08:38:16.385Z,90.43
2017-11-11T08:39:16.353Z,92.33
2017-11-11T08:40:16.334Z,92.61
2017-11-11T08:41:16.301Z,92.52
2017-11-11T08:42:16.274Z,92.42
2017-11-11T08:43:16.238Z,92.80
2017-11-11T08:44:16.209Z,92.52
2017-11-11T08:45:16.189Z,90.52
2017-11-11T08:46:16.159Z,91.66
2017-11-11T08:47:16.136Z,90.28
2017-11-11T08:48:16.111Z,92.90
2017-11-11T08:49:16.068Z,91.56
2017-11-11T08:50:16.040Z,92.80
2017-11-11T08:51:16.008Z,92.52
2017-11-11T08:52:15.985Z,92.23
2017-11-11T08:53:15.961Z,90.90
2017-11-11T08:54:15.922Z,91.00
2017-11-11T08:55:15.901Z,89.29
2017-11-11T08:56:15.866Z,90.05
2017-11-11T08:57:15.839Z,88.91
2017-11-11T08:58:15.813Z,88.34
2017-11-11T08:59:16.086Z,87.77
2017-11-11T09:00:15.750Z,88.15
2017-11-11T09:01:15.722Z,87.87
2017-11-11T09:02:15.689Z,86.72
2017-11-11T09:03:15.663Z,86.44
2017-11-11T09:04:15.630Z,87.30
2017-11-11T09:05:15.600Z,87.68
2017-11-11T09:06:15.572Z,88.34
2017-11-11T09:07:15.548Z,88.06
2017-11-11T09:08:15.521Z,87.39
2017-11-11T09:09:15.488Z,86.72
2017-11-11T09:10:15.455Z,86.54
2017-11-11T09:11:15.431Z,86.25
2017-11-11T09:12:15.405Z,86.35
2017-11-11T09:13:15.366Z,85.02
2017-11-11T09:14:15.335Z,85.49
2017-11-11T09:15:15.314Z,86.07
2017-11-11T09:16:15.281Z,86.07
2017-11-11T09:17:15.250Z,85.49
2017-11-11T09:18:15.219Z,85.78
2017-11-11T09:19:15.188Z,85.68
2017-11-11T09:20:15.157Z,86.63
2017-11-11T09:21:15.132Z,86.25
2017-11-11T09:22:15.360Z,86.35
2017-11-11T09:23:15.071Z,86.54
2017-11-11T09:24:15.046Z,86.72
2017-11-11T09:25:15.014Z,86.35
2017-11-11T09:26:14.985Z,85.40
2017-11-11T09:27:14.964Z,86.35
2017-11-11T09:28:14.929Z,86.20
2017-11-11T09:29:14.900Z,86.44
2017-11-11T09:30:14.869Z,88.34
2017-11-11T09:31:14.838Z,87.96
2017-11-11T09:32:14.806Z,88.53
2017-11-11T09:33:14.794Z,88.48
2017-11-11T09:34:14.753Z,87.20
2017-11-11T09:35:14.716Z,87.20
2017-11-11T09:36:14.698Z,89.10
2017-11-11T09:37:14.662Z,88.20
2017-11-11T09:38:14.638Z,90.47
2017-11-11T09:39:14.611Z,91.42
2017-11-11T09:40:14.579Z,92.09
2017-11-11T09:41:14.547Z,91.24
2017-11-11T09:42:14.520Z,92.37
2017-11-11T09:43:14.485Z,92.18
2017-11-11T09:44:14.458Z,94.74
2017-11-11T09:45:14.431Z,94.46
2017-11-11T09:46:14.399Z,96.26
2017-11-11T09:47:14.375Z,99.07
2017-11-11T09:48:14.350Z,99.92
2017-11-11T09:49:14.321Z,96.41
2017-11-11T09:50:14.290Z,97.45
2017-11-11T09:51:14.261Z,96.93
2017-11-11T09:52:14.230Z,96.74
2017-11-11T09:53:14.206Z,96.83
2017-11-11T09:54:14.177Z,95.98
2017-11-11T09:55:14.148Z,96.08
2017-11-11T09:56:14.122Z,94.56
2017-11-11T09:57:14.088Z,95.98
2017-11-11T09:58:14.310Z,96.36
2017-11-11T09:59:14.032Z,97.41
2017-11-11T10:00:14.006Z,97.22
2017-11-11T10:01:13.979Z,96.26
2017-11-11T10:02:13.953Z,97.60
2017-11-11T10:03:13.926Z,97.12
2017-11-11T10:04:13.890Z,97.22
2017-11-11T10:05:13.866Z,98.69
2017-11-11T10:06:13.837Z,97.92
2017-11-11T10:07:13.806Z,97.64
2017-11-11T10:08:13.780Z,97.64
2017-11-11T10:09:13.761Z,99.07
2017-11-11T10:10:13.974Z,99.64
2017-11-11T10:11:13.703Z,99.44
2017-11-11T10:12:13.665Z,99.44
2017-11-11T10:13:13.635Z,99.78
2017-11-11T10:14:13.613Z,99.88
2017-11-11T10:15:13.585Z,99.99
2017-11-11T10:16:13.554Z,99.99
2017-11-11T10:17:13.538Z,99.99
2017-11-11T10:18:13.507Z,99.21
2017-11-11T10:19:13.478Z,99.99
2017-11-11T10:20:13.454Z,99.99
2017-11-11T10:21:13.676Z,99.30
2017-11-11T10:22:13.392Z,98.93
2017-11-11T10:23:13.368Z,99.99
2017-11-11T10:24:13.345Z,99.11
2017-11-11T10:25:13.315Z,98.74
2017-11-11T10:26:13.292Z,97.74
2017-11-11T10:27:13.519Z,99.11
2017-11-11T10:28:13.232Z,98.45
2017-11-11T10:29:13.207Z,99.59
2017-11-11T10:30:13.186Z,98.07
2017-11-11T10:31:13.155Z,99.11
2017-11-11T10:32:13.128Z,98.50
2017-11-11T10:33:13.097Z,99.35
2017-11-11T10:34:13.073Z,99.07
2017-11-11T10:35:13.044Z,98.40
2017-11-11T10:36:13.016Z,98.31
2017-11-11T10:37:12.989Z,97.83
2017-11-11T10:38:12.970Z,97.27
2017-11-11T10:39:13.348Z,97.64
2017-11-11T10:40:12.911Z,95.94
2017-11-11T10:41:12.886Z,97.64
2017-11-11T10:42:12.858Z,96.88
2017-11-11T10:43:12.840Z,95.84
2017-11-11T10:44:12.807Z,96.79
2017-11-11T10:45:12.776Z,95.65
2017-11-11T10:46:12.749Z,96.79
2017-11-11T10:47:12.724Z,97.17
2017-11-11T10:48:12.695Z,98.12
2017-11-11T10:49:12.668Z,98.50
2017-11-11T10:50:12.635Z,97.92
2017-11-11T10:51:12.616Z,98.12
2017-11-11T10:52:12.582Z,99.44
2017-11-11T10:53:12.554Z,99.16
2017-11-11T10:54:12.524Z,99.16
2017-11-11T10:55:12.494Z,99.64
2017-11-11T10:56:12.470Z,99.16
2017-11-11T10:57:12.447Z,98.31
2017-11-11T10:58:12.412Z,98.55
2017-11-11T10:59:12.389Z,99.16
2017-11-11T11:00:12.363Z,99.16
2017-11-11T11:01:12.330Z,99.99
2017-11-11T11:02:12.659Z,99.99
2017-11-11T11:03:12.282Z,99.99
2017-11-11T11:04:12.252Z,99.99
2017-11-11T11:05:12.219Z,99.99
2017-11-11T11:06:12.204Z,99.99
2017-11-11T11:07:12.169Z,99.99
2017-11-11T11:08:12.137Z,99.99
2017-11-11T11:09:12.108Z,99.99
2017-11-11T11:10:12.092Z,99.99
2017-11-11T11:11:12.057Z,99.99
2017-11-11T11:12:12.028Z,99.99
2017-11-11T11:13:12.006Z,99.99
2017-11-11T11:14:12.327Z,99.99
2017-11-11T11:15:11.949Z,99.99
2017-11-11T11:16:11.926Z,99.99
2017-11-11T11:17:11.905Z,99.99
2017-11-11T11:18:11.873Z,99.99
2017-11-11T11:19:11.851Z,99.99
2017-11-11T11:20:11.818Z,99.99
2017-11-11T11:21:11.795Z,99.99
2017-11-11T11:22:11.769Z,99.99
2017-11-11T11:23:11.752Z,99.99
2017-11-11T11:24:11.720Z,99.99
2017-11-11T11:25:11.692Z,99.99
2017-11-11T11:26:11.677Z,99.99
2017-11-11T11:27:11.641Z,99.99
2017-11-11T11:28:11.613Z,99.99
2017-11-11T11:29:11.588Z,99.99
2017-11-11T11:30:11.560Z,99.99
2017-11-11T11:31:11.552Z,99.99
2017-11-11T11:32:11.510Z,99.99
2017-11-11T11:33:11.487Z,99.99
2017-11-11T11:34:11.462Z,99.99
2017-11-11T11:35:11.437Z,99.99
2017-11-11T11:36:11.405Z,99.99
2017-11-11T11:37:11.377Z,99.99
2017-11-11T11:38:11.386Z,99.99
2017-11-11T11:39:11.344Z,99.99
2017-11-11T11:40:11.305Z,99.99
2017-11-11T11:41:11.278Z,99.99
2017-11-11T11:42:11.253Z,99.99
2017-11-11T11:43:11.484Z,99.99
2017-11-11T11:44:11.200Z,99.99
2017-11-11T11:45:11.173Z,99.99
2017-11-11T11:46:11.161Z,99.99
2017-11-11T11:47:11.127Z,99.99
2017-11-11T11:48:11.097Z,99.99
2017-11-11T11:49:11.072Z,99.99
2017-11-11T11:50:11.049Z,99.99
2017-11-11T11:51:11.030Z,99.99
2017-11-11T11:52:10.996Z,99.99
2017-11-11T11:53:10.970Z,99.99
2017-11-11T11:54:10.949Z,99.99
2017-11-11T11:55:11.170Z,99.99
2017-11-11T11:56:10.893Z,99.99
2017-11-11T11:57:10.866Z,99.99
2017-11-11T11:58:10.845Z,99.99
2017-11-11T11:59:10.816Z,99.99
2017-11-11T12:00:10.786Z,99.99
2017-11-11T12:01:10.763Z,99.99
2017-11-11T12:02:10.734Z,99.99
2017-11-11T12:03:10.718Z,99.99
2017-11-11T12:04:10.689Z,99.99
2017-11-11T12:05:10.659Z,99.99
2017-11-11T12:06:10.627Z,99.99
2017-11-11T12:07:10.608Z,99.99
2017-11-11T12:08:10.589Z,99.99
2017-11-11T12:09:10.559Z,99.99
2017-11-11T12:10:10.532Z,99.99
2017-11-11T12:11:10.507Z,99.99
2017-11-11T12:12:10.481Z,99.99
2017-11-11T12:13:10.454Z,99.99
2017-11-11T12:14:10.423Z,99.99
2017-11-11T12:15:10.401Z,99.99
2017-11-11T12:16:10.367Z,99.99
2017-11-11T12:17:10.340Z,99.99
2017-11-11T12:18:10.319Z,99.99
2017-11-11T12:19:10.590Z,99.99
2017-11-11T12:20:10.263Z,99.99
2017-11-11T12:21:10.240Z,99.99
2017-11-11T12:22:10.209Z,99.99
2017-11-11T12:23:10.186Z,99.99
2017-11-11T12:24:10.155Z,99.99
2017-11-11T12:25:10.129Z,99.99
2017-11-11T12:26:10.108Z,99.99
2017-11-11T12:27:10.088Z,99.99
2017-11-11T12:28:10.055Z,99.99
2017-11-11T12:29:10.034Z,99.99
2017-11-11T12:30:10.000Z,99.99
2017-11-11T12:31:09.981Z,99.99
2017-11-11T12:32:09.960Z,99.99
2017-11-11T12:33:09.930Z,99.99
2017-11-11T12:34:09.906Z,99.99
2017-11-11T12:35:09.878Z,99.99
2017-11-11T12:36:09.845Z,99.99
2017-11-11T12:37:09.828Z,99.99
2017-11-11T12:38:09.802Z,99.99
2017-11-11T12:39:09.772Z,99.99
2017-11-11T12:40:09.746Z,99.99
2017-11-11T12:41:09.718Z,99.99
2017-11-11T12:42:09.694Z,99.99
2017-11-11T12:43:09.670Z,99.99
2017-11-11T12:44:09.644Z,99.99
2017-11-11T12:45:09.627Z,99.99
2017-11-11T12:46:09.595Z,99.99
2017-11-11T12:47:09.566Z,99.99
2017-11-11T12:48:09.543Z,99.99
2017-11-11T12:49:09.511Z,99.99
2017-11-11T12:50:09.489Z,99.99
2017-11-11T12:51:09.469Z,99.99
2017-11-11T12:52:09.438Z,99.99